sensor_id;sensor_type;location;lat;lon;timestamp;P1;durP1;ratioP1;P2;durP2;ratioP2
75135;SDS011;63707;52.212;9.540;2023-05-27T00:01:17;28.15;;;5.75;;
75135;SDS011;63707;52.212;9.540;2023-05-27T00:03:43;29.13;;;6.13;;
75135;SDS011;63707;52.212;9.540;2023-05-27T00:06:08;22.42;;;5.25;;
75135;SDS011;63707;52.212;9.540;2023-05-27T00:08:34;21.08;;;5.70;;
75135;SDS011;63707;52.212;9.540;2023-05-27T00:11:01;24.85;;;5.70;;
75135;SDS011;63707;52.212;9.540;2023-05-27T00:13:26;25.65;;;5.53;;
75135;SDS011;63707;52.212;9.540;2023-05-27T00:15:51;22.38;;;5.47;;
75135;SDS011;63707;52.212;9.540;2023-05-27T00:18:17;24.80;;;5.88;;
75135;SDS011;63707;52.212;9.540;2023-05-27T00:20:42;34.15;;;6.63;;
75135;SDS011;63707;52.212;9.540;2023-05-27T00:23:08;23.77;;;5.38;;
75135;SDS011;63707;52.212;9.540;2023-05-27T00:25:34;21.52;;;5.18;;
75135;SDS011;63707;52.212;9.540;2023-05-27T00:28:01;29.15;;;6.13;;
75135;SDS011;63707;52.212;9.540;2023-05-27T00:30:27;33.72;;;5.95;;
75135;SDS011;63707;52.212;9.540;2023-05-27T00:32:52;24.13;;;6.25;;
75135;SDS011;63707;52.212;9.540;2023-05-27T00:35:18;33.20;;;6.45;;
75135;SDS011;63707;52.212;9.540;2023-05-27T00:37:43;21.88;;;5.28;;
75135;SDS011;63707;52.212;9.540;2023-05-27T00:40:10;25.75;;;5.18;;
75135;SDS011;63707;52.212;9.540;2023-05-27T00:42:36;23.95;;;5.35;;
75135;SDS011;63707;52.212;9.540;2023-05-27T00:45:04;27.50;;;5.75;;
75135;SDS011;63707;52.212;9.540;2023-05-27T00:47:31;35.17;;;6.28;;
75135;SDS011;63707;52.212;9.540;2023-05-27T00:49:59;32.05;;;6.35;;
75135;SDS011;63707;52.212;9.540;2023-05-27T00:52:25;23.45;;;5.50;;
75135;SDS011;63707;52.212;9.540;2023-05-27T00:54:52;41.28;;;6.22;;
75135;SDS011;63707;52.212;9.540;2023-05-27T00:57:19;22.52;;;6.53;;
75135;SDS011;63707;52.212;9.540;2023-05-27T00:59:45;31.70;;;5.90;;
75135;SDS011;63707;52.212;9.540;2023-05-27T01:02:12;24.58;;;6.28;;
75135;SDS011;63707;52.212;9.540;2023-05-27T01:04:38;29.00;;;5.43;;
75135;SDS011;63707;52.212;9.540;2023-05-27T01:07:06;28.95;;;6.25;;
75135;SDS011;63707;52.212;9.540;2023-05-27T01:09:37;29.92;;;5.72;;
75135;SDS011;63707;52.212;9.540;2023-05-27T01:12:07;18.35;;;4.80;;
75135;SDS011;63707;52.212;9.540;2023-05-27T01:14:39;18.75;;;4.97;;
75135;SDS011;63707;52.212;9.540;2023-05-27T01:17:08;26.98;;;5.63;;
75135;SDS011;63707;52.212;9.540;2023-05-27T01:19:39;18.90;;;4.93;;
75135;SDS011;63707;52.212;9.540;2023-05-27T01:22:11;29.42;;;6.53;;
75135;SDS011;63707;52.212;9.540;2023-05-27T01:24:38;28.23;;;5.63;;
75135;SDS011;63707;52.212;9.540;2023-05-27T01:27:06;34.13;;;6.40;;
75135;SDS011;63707;52.212;9.540;2023-05-27T01:29:33;25.98;;;5.82;;
75135;SDS011;63707;52.212;9.540;2023-05-27T01:32:01;21.90;;;6.10;;
75135;SDS011;63707;52.212;9.540;2023-05-27T01:34:33;24.25;;;5.65;;
75135;SDS011;63707;52.212;9.540;2023-05-27T01:37:04;26.77;;;6.35;;
75135;SDS011;63707;52.212;9.540;2023-05-27T01:39:33;20.73;;;5.13;;
75135;SDS011;63707;52.212;9.540;2023-05-27T01:42:01;27.90;;;6.80;;
75135;SDS011;63707;52.212;9.540;2023-05-27T01:44:28;28.48;;;6.15;;
75135;SDS011;63707;52.212;9.540;2023-05-27T01:46:57;22.90;;;4.97;;
75135;SDS011;63707;52.212;9.540;2023-05-27T01:49:24;23.80;;;5.78;;
75135;SDS011;63707;52.212;9.540;2023-05-27T01:51:49;23.60;;;4.78;;
75135;SDS011;63707;52.212;9.540;2023-05-27T01:54:15;28.35;;;7.10;;
75135;SDS011;63707;52.212;9.540;2023-05-27T01:56:40;27.02;;;5.07;;
75135;SDS011;63707;52.212;9.540;2023-05-27T01:59:07;25.10;;;5.60;;
75135;SDS011;63707;52.212;9.540;2023-05-27T02:01:33;35.20;;;6.60;;
75135;SDS011;63707;52.212;9.540;2023-05-27T02:03:58;28.13;;;5.75;;
75135;SDS011;63707;52.212;9.540;2023-05-27T02:06:24;26.80;;;5.65;;
75135;SDS011;63707;52.212;9.540;2023-05-27T02:08:50;27.45;;;5.97;;
75135;SDS011;63707;52.212;9.540;2023-05-27T02:11:16;34.47;;;5.65;;
75135;SDS011;63707;52.212;9.540;2023-05-27T02:13:41;30.88;;;6.55;;
75135;SDS011;63707;52.212;9.540;2023-05-27T02:16:09;33.17;;;6.80;;
75135;SDS011;63707;52.212;9.540;2023-05-27T02:18:34;28.58;;;5.97;;
75135;SDS011;63707;52.212;9.540;2023-05-27T02:21:00;28.75;;;5.57;;
75135;SDS011;63707;52.212;9.540;2023-05-27T02:23:30;29.05;;;5.68;;
75135;SDS011;63707;52.212;9.540;2023-05-27T02:25:56;23.10;;;5.53;;
75135;SDS011;63707;52.212;9.540;2023-05-27T02:28:21;27.88;;;5.75;;
75135;SDS011;63707;52.212;9.540;2023-05-27T02:30:47;29.58;;;5.82;;
75135;SDS011;63707;52.212;9.540;2023-05-27T02:33:13;32.58;;;6.15;;
75135;SDS011;63707;52.212;9.540;2023-05-27T02:35:39;25.40;;;5.70;;
75135;SDS011;63707;52.212;9.540;2023-05-27T02:38:05;26.98;;;6.38;;
75135;SDS011;63707;52.212;9.540;2023-05-27T02:40:30;25.83;;;5.35;;
75135;SDS011;63707;52.212;9.540;2023-05-27T02:42:56;29.67;;;6.20;;
75135;SDS011;63707;52.212;9.540;2023-05-27T02:45:22;28.70;;;7.05;;
75135;SDS011;63707;52.212;9.540;2023-05-27T02:47:47;30.77;;;7.60;;
75135;SDS011;63707;52.212;9.540;2023-05-27T02:50:14;24.83;;;6.15;;
75135;SDS011;63707;52.212;9.540;2023-05-27T02:52:40;27.38;;;5.80;;
75135;SDS011;63707;52.212;9.540;2023-05-27T02:55:06;36.00;;;6.78;;
75135;SDS011;63707;52.212;9.540;2023-05-27T02:57:33;31.65;;;5.72;;
75135;SDS011;63707;52.212;9.540;2023-05-27T02:59:58;26.88;;;6.00;;
75135;SDS011;63707;52.212;9.540;2023-05-27T03:02:24;26.77;;;6.00;;
75135;SDS011;63707;52.212;9.540;2023-05-27T03:04:50;25.27;;;6.55;;
75135;SDS011;63707;52.212;9.540;2023-05-27T03:07:16;28.25;;;6.45;;
75135;SDS011;63707;52.212;9.540;2023-05-27T03:09:42;21.88;;;5.97;;
75135;SDS011;63707;52.212;9.540;2023-05-27T03:12:07;34.05;;;7.20;;
75135;SDS011;63707;52.212;9.540;2023-05-27T03:14:33;27.42;;;7.38;;
75135;SDS011;63707;52.212;9.540;2023-05-27T03:16:58;30.35;;;6.80;;
75135;SDS011;63707;52.212;9.540;2023-05-27T03:19:24;37.25;;;7.05;;
75135;SDS011;63707;52.212;9.540;2023-05-27T03:21:50;30.02;;;6.85;;
75135;SDS011;63707;52.212;9.540;2023-05-27T03:24:17;36.42;;;6.72;;
75135;SDS011;63707;52.212;9.540;2023-05-27T03:26:43;27.88;;;7.10;;
75135;SDS011;63707;52.212;9.540;2023-05-27T03:29:08;41.03;;;7.55;;
75135;SDS011;63707;52.212;9.540;2023-05-27T03:31:34;42.75;;;7.95;;
75135;SDS011;63707;52.212;9.540;2023-05-27T03:33:59;33.20;;;7.45;;
75135;SDS011;63707;52.212;9.540;2023-05-27T03:36:25;32.13;;;7.70;;
75135;SDS011;63707;52.212;9.540;2023-05-27T03:38:51;32.05;;;7.18;;
75135;SDS011;63707;52.212;9.540;2023-05-27T03:41:18;37.58;;;7.75;;
75135;SDS011;63707;52.212;9.540;2023-05-27T03:43:44;38.33;;;7.55;;
75135;SDS011;63707;52.212;9.540;2023-05-27T03:46:09;31.52;;;6.72;;
75135;SDS011;63707;52.212;9.540;2023-05-27T03:48:34;32.13;;;7.25;;
75135;SDS011;63707;52.212;9.540;2023-05-27T03:51:00;33.85;;;8.10;;
75135;SDS011;63707;52.212;9.540;2023-05-27T03:53:25;25.85;;;6.43;;
75135;SDS011;63707;52.212;9.540;2023-05-27T03:55:51;25.90;;;6.60;;
75135;SDS011;63707;52.212;9.540;2023-05-27T03:58:18;23.73;;;6.68;;
75135;SDS011;63707;52.212;9.540;2023-05-27T04:00:43;24.45;;;6.38;;
75135;SDS011;63707;52.212;9.540;2023-05-27T04:03:09;23.23;;;5.63;;
75135;SDS011;63707;52.212;9.540;2023-05-27T04:05:34;24.52;;;6.13;;
75135;SDS011;63707;52.212;9.540;2023-05-27T04:08:00;27.38;;;6.43;;
75135;SDS011;63707;52.212;9.540;2023-05-27T04:10:26;25.83;;;6.82;;
75135;SDS011;63707;52.212;9.540;2023-05-27T04:12:51;27.13;;;6.35;;
75135;SDS011;63707;52.212;9.540;2023-05-27T04:15:18;27.23;;;7.15;;
75135;SDS011;63707;52.212;9.540;2023-05-27T04:17:44;33.90;;;7.20;;
75135;SDS011;63707;52.212;9.540;2023-05-27T04:20:10;29.25;;;6.93;;
75135;SDS011;63707;52.212;9.540;2023-05-27T04:22:39;28.58;;;7.18;;
75135;SDS011;63707;52.212;9.540;2023-05-27T04:25:07;32.22;;;7.13;;
75135;SDS011;63707;52.212;9.540;2023-05-27T04:27:32;24.58;;;6.47;;
75135;SDS011;63707;52.212;9.540;2023-05-27T04:29:58;31.35;;;7.35;;
75135;SDS011;63707;52.212;9.540;2023-05-27T04:32:26;26.85;;;6.47;;
75135;SDS011;63707;52.212;9.540;2023-05-27T04:34:52;30.48;;;6.95;;
75135;SDS011;63707;52.212;9.540;2023-05-27T04:37:18;27.08;;;6.68;;
75135;SDS011;63707;52.212;9.540;2023-05-27T04:39:44;32.67;;;6.95;;
75135;SDS011;63707;52.212;9.540;2023-05-27T04:42:11;26.13;;;6.43;;
75135;SDS011;63707;52.212;9.540;2023-05-27T04:44:37;24.83;;;5.93;;
75135;SDS011;63707;52.212;9.540;2023-05-27T04:47:04;28.35;;;7.68;;
75135;SDS011;63707;52.212;9.540;2023-05-27T04:49:31;22.58;;;6.22;;
75135;SDS011;63707;52.212;9.540;2023-05-27T04:51:57;24.80;;;6.00;;
75135;SDS011;63707;52.212;9.540;2023-05-27T04:54:22;26.10;;;6.15;;
75135;SDS011;63707;52.212;9.540;2023-05-27T04:56:48;33.25;;;6.78;;
75135;SDS011;63707;52.212;9.540;2023-05-27T04:59:16;27.10;;;7.47;;
75135;SDS011;63707;52.212;9.540;2023-05-27T05:01:44;28.10;;;7.28;;
75135;SDS011;63707;52.212;9.540;2023-05-27T05:04:28;16.35;;;5.07;;
75135;SDS011;63707;52.212;9.540;2023-05-27T05:06:56;26.13;;;7.22;;
75135;SDS011;63707;52.212;9.540;2023-05-27T05:09:21;27.02;;;6.95;;
75135;SDS011;63707;52.212;9.540;2023-05-27T05:11:47;28.40;;;7.05;;
75135;SDS011;63707;52.212;9.540;2023-05-27T05:14:12;24.58;;;6.70;;
75135;SDS011;63707;52.212;9.540;2023-05-27T05:16:38;22.67;;;6.22;;
75135;SDS011;63707;52.212;9.540;2023-05-27T05:19:03;21.08;;;5.85;;
75135;SDS011;63707;52.212;9.540;2023-05-27T05:21:29;26.30;;;6.90;;
75135;SDS011;63707;52.212;9.540;2023-05-27T05:23:57;33.00;;;6.90;;
75135;SDS011;63707;52.212;9.540;2023-05-27T05:26:22;27.65;;;7.07;;
75135;SDS011;63707;52.212;9.540;2023-05-27T05:28:48;28.08;;;7.68;;
75135;SDS011;63707;52.212;9.540;2023-05-27T05:31:13;27.75;;;7.05;;
75135;SDS011;63707;52.212;9.540;2023-05-27T05:33:39;28.85;;;6.80;;
75135;SDS011;63707;52.212;9.540;2023-05-27T05:36:05;28.98;;;6.57;;
75135;SDS011;63707;52.212;9.540;2023-05-27T05:38:30;29.17;;;6.93;;
75135;SDS011;63707;52.212;9.540;2023-05-27T05:40:57;28.23;;;6.45;;
75135;SDS011;63707;52.212;9.540;2023-05-27T05:43:23;19.88;;;7.05;;
75135;SDS011;63707;52.212;9.540;2023-05-27T05:45:48;33.63;;;7.63;;
75135;SDS011;63707;52.212;9.540;2023-05-27T05:48:14;25.73;;;7.40;;
75135;SDS011;63707;52.212;9.540;2023-05-27T05:50:39;23.85;;;7.32;;
75135;SDS011;63707;52.212;9.540;2023-05-27T05:53:05;26.25;;;7.53;;
75135;SDS011;63707;52.212;9.540;2023-05-27T05:55:30;23.88;;;7.60;;
75135;SDS011;63707;52.212;9.540;2023-05-27T05:57:57;28.23;;;8.27;;
75135;SDS011;63707;52.212;9.540;2023-05-27T06:00:23;29.20;;;8.23;;
75135;SDS011;63707;52.212;9.540;2023-05-27T06:02:49;26.23;;;8.10;;
75135;SDS011;63707;52.212;9.540;2023-05-27T06:05:14;29.20;;;7.97;;
75135;SDS011;63707;52.212;9.540;2023-05-27T06:07:40;27.25;;;7.63;;
75135;SDS011;63707;52.212;9.540;2023-05-27T06:10:05;29.10;;;6.97;;
75135;SDS011;63707;52.212;9.540;2023-05-27T06:12:32;26.30;;;7.40;;
75135;SDS011;63707;52.212;9.540;2023-05-27T06:14:58;29.35;;;8.02;;
75135;SDS011;63707;52.212;9.540;2023-05-27T06:17:24;25.80;;;7.15;;
75135;SDS011;63707;52.212;9.540;2023-05-27T06:19:49;26.30;;;7.15;;
75135;SDS011;63707;52.212;9.540;2023-05-27T06:22:15;21.70;;;6.70;;
75135;SDS011;63707;52.212;9.540;2023-05-27T06:24:41;20.45;;;7.82;;
75135;SDS011;63707;52.212;9.540;2023-05-27T06:27:06;23.38;;;7.25;;
75135;SDS011;63707;52.212;9.540;2023-05-27T06:29:32;24.77;;;7.47;;
75135;SDS011;63707;52.212;9.540;2023-05-27T06:31:59;30.95;;;8.02;;
75135;SDS011;63707;52.212;9.540;2023-05-27T06:34:25;27.85;;;7.38;;
75135;SDS011;63707;52.212;9.540;2023-05-27T06:36:50;27.33;;;7.45;;
75135;SDS011;63707;52.212;9.540;2023-05-27T06:39:16;28.17;;;7.45;;
75135;SDS011;63707;52.212;9.540;2023-05-27T06:41:41;27.58;;;7.50;;
75135;SDS011;63707;52.212;9.540;2023-05-27T06:44:07;23.83;;;6.95;;
75135;SDS011;63707;52.212;9.540;2023-05-27T06:46:32;24.52;;;7.80;;
75135;SDS011;63707;52.212;9.540;2023-05-27T06:48:59;27.67;;;7.38;;
75135;SDS011;63707;52.212;9.540;2023-05-27T06:51:24;27.88;;;7.50;;
75135;SDS011;63707;52.212;9.540;2023-05-27T06:53:52;24.58;;;7.57;;
75135;SDS011;63707;52.212;9.540;2023-05-27T06:56:17;28.17;;;7.43;;
75135;SDS011;63707;52.212;9.540;2023-05-27T06:58:44;25.92;;;7.47;;
75135;SDS011;63707;52.212;9.540;2023-05-27T07:01:10;21.15;;;6.60;;
75135;SDS011;63707;52.212;9.540;2023-05-27T07:03:35;23.50;;;7.10;;
75135;SDS011;63707;52.212;9.540;2023-05-27T07:06:02;25.98;;;7.57;;
75135;SDS011;63707;52.212;9.540;2023-05-27T07:08:28;18.92;;;7.55;;
75135;SDS011;63707;52.212;9.540;2023-05-27T07:10:53;32.42;;;7.38;;
75135;SDS011;63707;52.212;9.540;2023-05-27T07:13:19;23.60;;;6.97;;
75135;SDS011;63707;52.212;9.540;2023-05-27T07:15:44;22.60;;;7.28;;
75135;SDS011;63707;52.212;9.540;2023-05-27T07:18:10;26.63;;;7.25;;
75135;SDS011;63707;52.212;9.540;2023-05-27T07:20:35;25.60;;;6.57;;
75135;SDS011;63707;52.212;9.540;2023-05-27T07:23:02;21.08;;;6.25;;
75135;SDS011;63707;52.212;9.540;2023-05-27T07:25:28;24.92;;;7.22;;
75135;SDS011;63707;52.212;9.540;2023-05-27T07:27:53;18.60;;;6.82;;
75135;SDS011;63707;52.212;9.540;2023-05-27T07:30:19;22.30;;;6.90;;
75135;SDS011;63707;52.212;9.540;2023-05-27T07:32:45;20.55;;;7.03;;
75135;SDS011;63707;52.212;9.540;2023-05-27T07:35:10;22.42;;;6.22;;
75135;SDS011;63707;52.212;9.540;2023-05-27T07:37:36;19.65;;;5.93;;
75135;SDS011;63707;52.212;9.540;2023-05-27T07:40:03;20.70;;;6.50;;
75135;SDS011;63707;52.212;9.540;2023-05-27T07:42:29;20.58;;;6.00;;
75135;SDS011;63707;52.212;9.540;2023-05-27T07:44:55;26.20;;;6.18;;
75135;SDS011;63707;52.212;9.540;2023-05-27T07:47:20;20.40;;;6.53;;
75135;SDS011;63707;52.212;9.540;2023-05-27T07:49:46;20.17;;;7.00;;
75135;SDS011;63707;52.212;9.540;2023-05-27T07:52:12;16.63;;;6.00;;
75135;SDS011;63707;52.212;9.540;2023-05-27T07:54:37;27.25;;;6.30;;
75135;SDS011;63707;52.212;9.540;2023-05-27T07:57:04;24.45;;;6.45;;
75135;SDS011;63707;52.212;9.540;2023-05-27T07:59:31;20.05;;;6.55;;
75135;SDS011;63707;52.212;9.540;2023-05-27T08:01:57;19.40;;;5.82;;
75135;SDS011;63707;52.212;9.540;2023-05-27T08:04:22;18.92;;;6.20;;
75135;SDS011;63707;52.212;9.540;2023-05-27T08:06:48;23.90;;;6.45;;
75135;SDS011;63707;52.212;9.540;2023-05-27T08:09:13;18.25;;;6.40;;
75135;SDS011;63707;52.212;9.540;2023-05-27T08:11:39;20.17;;;5.85;;
75135;SDS011;63707;52.212;9.540;2023-05-27T08:14:05;17.95;;;5.93;;
75135;SDS011;63707;52.212;9.540;2023-05-27T08:16:31;16.40;;;6.18;;
75135;SDS011;63707;52.212;9.540;2023-05-27T08:18:56;16.75;;;5.50;;
75135;SDS011;63707;52.212;9.540;2023-05-27T08:21:22;18.88;;;6.45;;
75135;SDS011;63707;52.212;9.540;2023-05-27T08:23:47;21.23;;;6.72;;
75135;SDS011;63707;52.212;9.540;2023-05-27T08:26:13;20.52;;;5.57;;
75135;SDS011;63707;52.212;9.540;2023-05-27T08:28:38;17.50;;;4.85;;
75135;SDS011;63707;52.212;9.540;2023-05-27T08:31:06;20.17;;;4.88;;
75135;SDS011;63707;52.212;9.540;2023-05-27T08:33:32;22.45;;;6.00;;
75135;SDS011;63707;52.212;9.540;2023-05-27T08:35:58;20.05;;;5.57;;
75135;SDS011;63707;52.212;9.540;2023-05-27T08:38:23;19.55;;;5.25;;
75135;SDS011;63707;52.212;9.540;2023-05-27T08:40:49;17.80;;;5.30;;
75135;SDS011;63707;52.212;9.540;2023-05-27T08:43:15;19.20;;;5.75;;
75135;SDS011;63707;52.212;9.540;2023-05-27T08:45:41;18.15;;;6.40;;
75135;SDS011;63707;52.212;9.540;2023-05-27T08:48:09;18.75;;;5.97;;
75135;SDS011;63707;52.212;9.540;2023-05-27T08:50:35;20.65;;;6.03;;
75135;SDS011;63707;52.212;9.540;2023-05-27T08:53:02;19.67;;;6.25;;
75135;SDS011;63707;52.212;9.540;2023-05-27T08:55:29;20.40;;;6.30;;
75135;SDS011;63707;52.212;9.540;2023-05-27T08:57:56;14.77;;;5.55;;
75135;SDS011;63707;52.212;9.540;2023-05-27T09:00:23;16.15;;;5.25;;
75135;SDS011;63707;52.212;9.540;2023-05-27T09:02:49;17.20;;;5.35;;
75135;SDS011;63707;52.212;9.540;2023-05-27T09:05:16;17.77;;;4.97;;
75135;SDS011;63707;52.212;9.540;2023-05-27T09:07:42;15.65;;;4.80;;
75135;SDS011;63707;52.212;9.540;2023-05-27T09:10:08;14.45;;;5.75;;
75135;SDS011;63707;52.212;9.540;2023-05-27T09:12:34;12.65;;;3.50;;
75135;SDS011;63707;52.212;9.540;2023-05-27T09:15:01;14.88;;;4.53;;
75135;SDS011;63707;52.212;9.540;2023-05-27T09:17:27;16.85;;;5.05;;
75135;SDS011;63707;52.212;9.540;2023-05-27T09:19:53;13.75;;;4.72;;
75135;SDS011;63707;52.212;9.540;2023-05-27T09:22:21;15.75;;;4.93;;
75135;SDS011;63707;52.212;9.540;2023-05-27T09:24:48;17.77;;;5.03;;
75135;SDS011;63707;52.212;9.540;2023-05-27T09:27:14;18.42;;;4.82;;
75135;SDS011;63707;52.212;9.540;2023-05-27T09:29:39;15.63;;;4.78;;
75135;SDS011;63707;52.212;9.540;2023-05-27T09:32:05;15.88;;;4.57;;
75135;SDS011;63707;52.212;9.540;2023-05-27T09:34:37;13.13;;;4.63;;
75135;SDS011;63707;52.212;9.540;2023-05-27T09:37:03;11.80;;;4.72;;
75135;SDS011;63707;52.212;9.540;2023-05-27T09:39:32;16.55;;;5.15;;
75135;SDS011;63707;52.212;9.540;2023-05-27T09:42:00;14.02;;;4.80;;
75135;SDS011;63707;52.212;9.540;2023-05-27T09:44:27;21.65;;;5.20;;
75135;SDS011;63707;52.212;9.540;2023-05-27T09:46:56;18.33;;;4.40;;
75135;SDS011;63707;52.212;9.540;2023-05-27T09:49:23;22.05;;;5.68;;
75135;SDS011;63707;52.212;9.540;2023-05-27T09:51:52;23.15;;;5.30;;
75135;SDS011;63707;52.212;9.540;2023-05-27T09:54:19;18.23;;;4.53;;
75135;SDS011;63707;52.212;9.540;2023-05-27T09:56:48;15.15;;;4.45;;
75135;SDS011;63707;52.212;9.540;2023-05-27T09:59:14;14.52;;;4.47;;
75135;SDS011;63707;52.212;9.540;2023-05-27T10:01:40;14.38;;;4.45;;
75135;SDS011;63707;52.212;9.540;2023-05-27T10:04:09;19.42;;;5.00;;
75135;SDS011;63707;52.212;9.540;2023-05-27T10:06:35;19.15;;;5.65;;
75135;SDS011;63707;52.212;9.540;2023-05-27T10:09:01;15.98;;;4.90;;
75135;SDS011;63707;52.212;9.540;2023-05-27T10:11:30;12.02;;;4.20;;
75135;SDS011;63707;52.212;9.540;2023-05-27T10:13:57;14.55;;;4.97;;
75135;SDS011;63707;52.212;9.540;2023-05-27T10:16:25;14.85;;;4.22;;
75135;SDS011;63707;52.212;9.540;2023-05-27T10:18:52;12.23;;;4.05;;
75135;SDS011;63707;52.212;9.540;2023-05-27T10:21:19;15.23;;;5.18;;
75135;SDS011;63707;52.212;9.540;2023-05-27T10:23:56;15.48;;;4.47;;
75135;SDS011;63707;52.212;9.540;2023-05-27T10:26:30;10.70;;;4.23;;
75135;SDS011;63707;52.212;9.540;2023-05-27T10:29:05;10.70;;;3.92;;
75135;SDS011;63707;52.212;9.540;2023-05-27T10:31:33;14.70;;;4.82;;
75135;SDS011;63707;52.212;9.540;2023-05-27T10:33:58;13.70;;;4.43;;
75135;SDS011;63707;52.212;9.540;2023-05-27T10:36:24;14.70;;;4.47;;
75135;SDS011;63707;52.212;9.540;2023-05-27T10:38:54;11.82;;;4.72;;
75135;SDS011;63707;52.212;9.540;2023-05-27T10:41:21;14.20;;;4.32;;
75135;SDS011;63707;52.212;9.540;2023-05-27T10:43:54;13.07;;;4.15;;
75135;SDS011;63707;52.212;9.540;2023-05-27T10:46:22;10.50;;;3.80;;
75135;SDS011;63707;52.212;9.540;2023-05-27T10:48:47;15.35;;;4.75;;
75135;SDS011;63707;52.212;9.540;2023-05-27T10:51:13;13.75;;;4.80;;
75135;SDS011;63707;52.212;9.540;2023-05-27T10:53:38;12.85;;;4.25;;
75135;SDS011;63707;52.212;9.540;2023-05-27T10:56:04;16.27;;;4.50;;
75135;SDS011;63707;52.212;9.540;2023-05-27T10:58:34;16.98;;;4.72;;
75135;SDS011;63707;52.212;9.540;2023-05-27T11:01:01;13.05;;;4.40;;
75135;SDS011;63707;52.212;9.540;2023-05-27T11:03:33;10.45;;;4.18;;
75135;SDS011;63707;52.212;9.540;2023-05-27T11:06:00;11.38;;;4.00;;
75135;SDS011;63707;52.212;9.540;2023-05-27T11:08:26;11.55;;;4.03;;
75135;SDS011;63707;52.212;9.540;2023-05-27T11:10:57;15.05;;;4.32;;
75135;SDS011;63707;52.212;9.540;2023-05-27T11:13:28;11.85;;;3.97;;
75135;SDS011;63707;52.212;9.540;2023-05-27T11:15:54;13.23;;;4.55;;
75135;SDS011;63707;52.212;9.540;2023-05-27T11:18:20;11.27;;;4.05;;
75135;SDS011;63707;52.212;9.540;2023-05-27T11:20:47;11.73;;;4.40;;
75135;SDS011;63707;52.212;9.540;2023-05-27T11:23:12;14.50;;;4.57;;
75135;SDS011;63707;52.212;9.540;2023-05-27T11:25:42;14.52;;;4.05;;
75135;SDS011;63707;52.212;9.540;2023-05-27T11:28:13;13.80;;;4.10;;
75135;SDS011;63707;52.212;9.540;2023-05-27T11:30:39;10.60;;;3.60;;
75135;SDS011;63707;52.212;9.540;2023-05-27T11:33:05;11.27;;;3.63;;
75135;SDS011;63707;52.212;9.540;2023-05-27T11:35:30;11.70;;;3.80;;
75135;SDS011;63707;52.212;9.540;2023-05-27T11:37:59;8.27;;;3.50;;
75135;SDS011;63707;52.212;9.540;2023-05-27T11:40:33;14.98;;;3.85;;
75135;SDS011;63707;52.212;9.540;2023-05-27T11:42:59;11.10;;;3.75;;
75135;SDS011;63707;52.212;9.540;2023-05-27T11:45:25;8.88;;;3.60;;
75135;SDS011;63707;52.212;9.540;2023-05-27T11:47:51;12.93;;;4.00;;
75135;SDS011;63707;52.212;9.540;2023-05-27T11:50:18;11.70;;;3.83;;
75135;SDS011;63707;52.212;9.540;2023-05-27T11:52:51;8.88;;;3.58;;
75135;SDS011;63707;52.212;9.540;2023-05-27T11:55:19;14.02;;;4.40;;
75135;SDS011;63707;52.212;9.540;2023-05-27T11:57:45;10.77;;;3.65;;
75135;SDS011;63707;52.212;9.540;2023-05-27T12:00:11;12.10;;;3.95;;
75135;SDS011;63707;52.212;9.540;2023-05-27T12:02:38;11.55;;;3.70;;
75135;SDS011;63707;52.212;9.540;2023-05-27T12:05:04;14.80;;;3.65;;
75135;SDS011;63707;52.212;9.540;2023-05-27T12:07:31;11.30;;;4.78;;
75135;SDS011;63707;52.212;9.540;2023-05-27T12:09:57;11.23;;;4.15;;
75135;SDS011;63707;52.212;9.540;2023-05-27T12:12:23;9.15;;;3.47;;
75135;SDS011;63707;52.212;9.540;2023-05-27T12:14:49;15.48;;;4.70;;
75135;SDS011;63707;52.212;9.540;2023-05-27T12:17:14;8.68;;;3.80;;
75135;SDS011;63707;52.212;9.540;2023-05-27T12:19:40;9.85;;;3.58;;
75135;SDS011;63707;52.212;9.540;2023-05-27T12:22:05;11.88;;;3.72;;
75135;SDS011;63707;52.212;9.540;2023-05-27T12:24:31;8.57;;;3.40;;
75135;SDS011;63707;52.212;9.540;2023-05-27T12:26:56;12.57;;;4.22;;
75135;SDS011;63707;52.212;9.540;2023-05-27T12:29:23;10.93;;;3.58;;
75135;SDS011;63707;52.212;9.540;2023-05-27T12:31:51;10.30;;;3.42;;
75135;SDS011;63707;52.212;9.540;2023-05-27T12:34:16;12.02;;;3.40;;
75135;SDS011;63707;52.212;9.540;2023-05-27T12:36:42;17.20;;;4.00;;
75135;SDS011;63707;52.212;9.540;2023-05-27T12:39:07;12.80;;;3.65;;
75135;SDS011;63707;52.212;9.540;2023-05-27T12:41:33;8.88;;;3.40;;
75135;SDS011;63707;52.212;9.540;2023-05-27T12:43:58;15.70;;;4.40;;
75135;SDS011;63707;52.212;9.540;2023-05-27T12:46:25;9.88;;;4.28;;
75135;SDS011;63707;52.212;9.540;2023-05-27T12:48:51;13.40;;;3.80;;
75135;SDS011;63707;52.212;9.540;2023-05-27T12:51:16;12.68;;;4.25;;
75135;SDS011;63707;52.212;9.540;2023-05-27T12:53:42;10.10;;;3.65;;
75135;SDS011;63707;52.212;9.540;2023-05-27T12:56:07;8.70;;;3.63;;
75135;SDS011;63707;52.212;9.540;2023-05-27T12:58:33;10.43;;;3.55;;
75135;SDS011;63707;52.212;9.540;2023-05-27T13:00:59;9.68;;;3.72;;
75135;SDS011;63707;52.212;9.540;2023-05-27T13:03:26;10.25;;;3.58;;
75135;SDS011;63707;52.212;9.540;2023-05-27T13:05:51;8.65;;;3.58;;
75135;SDS011;63707;52.212;9.540;2023-05-27T13:08:17;9.90;;;3.78;;
75135;SDS011;63707;52.212;9.540;2023-05-27T13:10:42;7.93;;;3.10;;
75135;SDS011;63707;52.212;9.540;2023-05-27T13:13:08;10.93;;;3.30;;
75135;SDS011;63707;52.212;9.540;2023-05-27T13:15:33;10.07;;;3.75;;
75135;SDS011;63707;52.212;9.540;2023-05-27T13:17:59;6.90;;;3.00;;
75135;SDS011;63707;52.212;9.540;2023-05-27T13:20:26;7.55;;;2.90;;
75135;SDS011;63707;52.212;9.540;2023-05-27T13:22:54;8.45;;;3.25;;
75135;SDS011;63707;52.212;9.540;2023-05-27T13:25:24;9.02;;;3.08;;
75135;SDS011;63707;52.212;9.540;2023-05-27T13:27:50;7.20;;;3.17;;
75135;SDS011;63707;52.212;9.540;2023-05-27T13:30:18;9.55;;;3.22;;
75135;SDS011;63707;52.212;9.540;2023-05-27T13:32:44;11.63;;;3.70;;
75135;SDS011;63707;52.212;9.540;2023-05-27T13:35:10;10.68;;;3.55;;
75135;SDS011;63707;52.212;9.540;2023-05-27T13:37:37;11.10;;;3.60;;
75135;SDS011;63707;52.212;9.540;2023-05-27T13:40:03;7.97;;;3.30;;
75135;SDS011;63707;52.212;9.540;2023-05-27T13:42:29;11.40;;;3.67;;
75135;SDS011;63707;52.212;9.540;2023-05-27T13:44:55;8.73;;;3.33;;
75135;SDS011;63707;52.212;9.540;2023-05-27T13:47:20;9.98;;;3.17;;
75135;SDS011;63707;52.212;9.540;2023-05-27T13:49:46;10.65;;;3.65;;
75135;SDS011;63707;52.212;9.540;2023-05-27T13:52:12;8.88;;;3.35;;
75135;SDS011;63707;52.212;9.540;2023-05-27T13:54:38;7.72;;;3.63;;
75135;SDS011;63707;52.212;9.540;2023-05-27T13:57:04;8.23;;;3.17;;
75135;SDS011;63707;52.212;9.540;2023-05-27T13:59:29;7.80;;;3.65;;
75135;SDS011;63707;52.212;9.540;2023-05-27T14:01:55;8.63;;;3.53;;
75135;SDS011;63707;52.212;9.540;2023-05-27T14:04:20;8.73;;;3.45;;
75135;SDS011;63707;52.212;9.540;2023-05-27T14:06:46;10.20;;;4.07;;
75135;SDS011;63707;52.212;9.540;2023-05-27T14:09:11;8.43;;;3.42;;
75135;SDS011;63707;52.212;9.540;2023-05-27T14:11:39;8.98;;;3.20;;
75135;SDS011;63707;52.212;9.540;2023-05-27T14:14:04;9.45;;;3.17;;
75135;SDS011;63707;52.212;9.540;2023-05-27T14:16:30;6.88;;;3.20;;
75135;SDS011;63707;52.212;9.540;2023-05-27T14:18:55;10.27;;;3.92;;
75135;SDS011;63707;52.212;9.540;2023-05-27T14:21:21;9.40;;;3.67;;
75135;SDS011;63707;52.212;9.540;2023-05-27T14:23:47;11.13;;;3.97;;
75135;SDS011;63707;52.212;9.540;2023-05-27T14:26:12;8.10;;;3.00;;
75135;SDS011;63707;52.212;9.540;2023-05-27T14:28:39;8.82;;;3.55;;
75135;SDS011;63707;52.212;9.540;2023-05-27T14:31:05;8.60;;;3.20;;